sensor_id;sensor_type;location;lat;lon;timestamp;pressure;altitude;pressure_sealevel;temperature;humidity
26192;BME280;13935;55.672;37.764;2023-03-20T04:43:15;100443.16;;;1.95;100.00
26192;BME280;13935;55.672;37.764;2023-03-20T04:44:35;100447.03;;;2.66;100.00
26192;BME280;13935;55.672;37.764;2023-03-20T04:46:13;100439.41;;;3.31;100.00
26192;BME280;13935;55.672;37.764;2023-03-20T04:49:26;100431.72;;;4.07;100.00
26192;BME280;13935;55.672;37.764;2023-03-20T04:56:43;100449.41;;;7.22;79.01
26192;BME280;13935;55.672;37.764;2023-03-20T04:57:57;100435.97;;;7.48;73.60
26192;BME280;13935;55.672;37.764;2023-03-20T04:59:50;100442.34;;;7.95;67.87
26192;BME280;13935;55.672;37.764;2023-03-20T05:03:03;100439.03;;;8.85;57.28
26192;BME280;13935;55.672;37.764;2023-03-20T05:30:42;100460.44;;;13.17;39.38
26192;BME280;13935;55.672;37.764;2023-03-20T07:06:46;100407.50;;;7.87;49.42
26192;BME280;13935;55.672;37.764;2023-03-20T07:12:24;100408.25;;;8.83;46.98
26192;BME280;13935;55.672;37.764;2023-03-20T08:35:05;100382.38;;;14.54;32.58
26192;BME280;13935;55.672;37.764;2023-03-20T08:36:57;100385.09;;;14.89;31.57
26192;BME280;13935;55.672;37.764;2023-03-20T08:38:29;100377.69;;;14.17;31.16
26192;BME280;13935;55.672;37.764;2023-03-20T08:40:09;100381.25;;;14.17;31.67
26192;BME280;13935;55.672;37.764;2023-03-20T08:42:02;100376.34;;;14.80;30.49
26192;BME280;13935;55.672;37.764;2023-03-20T08:43:41;100370.88;;;14.52;30.59
26192;BME280;13935;55.672;37.764;2023-03-20T11:45:29;100187.66;;;8.90;45.91
26192;BME280;13935;55.672;37.764;2023-03-20T13:38:02;100073.13;;;8.29;52.92
26192;BME280;13935;55.672;37.764;2023-03-20T14:03:43;100042.50;;;7.93;55.48
26192;BME280;13935;55.672;37.764;2023-03-20T14:14:25;100025.63;;;7.76;56.17
26192;BME280;13935;55.672;37.764;2023-03-20T14:16:45;100031.16;;;7.76;56.26
26192;BME280;13935;55.672;37.764;2023-03-20T14:18:13;100035.16;;;7.78;56.26
26192;BME280;13935;55.672;37.764;2023-03-20T14:20:11;100033.56;;;7.77;56.04
26192;BME280;13935;55.672;37.764;2023-03-20T14:21:28;100033.41;;;7.70;56.73
26192;BME280;13935;55.672;37.764;2023-03-20T14:22:41;100030.06;;;7.61;56.83
26192;BME280;13935;55.672;37.764;2023-03-20T14:24:23;100031.03;;;7.69;57.13
26192;BME280;13935;55.672;37.764;2023-03-20T14:25:42;100027.03;;;7.66;57.32
26192;BME280;13935;55.672;37.764;2023-03-20T14:27:23;100018.91;;;7.73;57.56
26192;BME280;13935;55.672;37.764;2023-03-20T14:35:39;100017.34;;;7.53;59.08
26192;BME280;13935;55.672;37.764;2023-03-20T14:37:38;100011.84;;;7.53;59.27
26192;BME280;13935;55.672;37.764;2023-03-20T14:39:52;100013.00;;;7.52;59.06
26192;BME280;13935;55.672;37.764;2023-03-20T14:41:59;100014.09;;;7.48;59.59
26192;BME280;13935;55.672;37.764;2023-03-20T15:35:33;99990.47;;;6.75;70.19
26192;BME280;13935;55.672;37.764;2023-03-20T15:37:53;99992.94;;;6.80;70.20
26192;BME280;13935;55.672;37.764;2023-03-20T15:39:53;99985.78;;;6.75;70.09
26192;BME280;13935;55.672;37.764;2023-03-20T15:43:14;99990.03;;;6.73;70.47
26192;BME280;13935;55.672;37.764;2023-03-20T15:44:51;99995.81;;;6.68;71.19
26192;BME280;13935;55.672;37.764;2023-03-20T15:46:28;99999.38;;;6.68;70.98
26192;BME280;13935;55.672;37.764;2023-03-20T15:48:14;99997.59;;;6.60;72.07
26192;BME280;13935;55.672;37.764;2023-03-20T15:49:56;99990.59;;;6.63;72.06
26192;BME280;13935;55.672;37.764;2023-03-20T15:51:39;99993.34;;;6.63;72.07
26192;BME280;13935;55.672;37.764;2023-03-20T15:56:33;99993.44;;;6.51;72.87
26192;BME280;13935;55.672;37.764;2023-03-20T15:58:04;99999.22;;;6.46;72.80
26192;BME280;13935;55.672;37.764;2023-03-20T15:59:19;99998.50;;;6.49;72.26
26192;BME280;13935;55.672;37.764;2023-03-20T16:00:46;100003.13;;;6.45;73.21
26192;BME280;13935;55.672;37.764;2023-03-20T16:02:02;99996.75;;;6.41;72.99
26192;BME280;13935;55.672;37.764;2023-03-20T16:03:26;99990.63;;;6.47;73.12
26192;BME280;13935;55.672;37.764;2023-03-20T16:04:56;99997.63;;;6.45;73.31
26192;BME280;13935;55.672;37.764;2023-03-20T16:07:17;99992.03;;;6.41;73.83
26192;BME280;13935;55.672;37.764;2023-03-20T16:08:45;99999.75;;;6.36;73.85
26192;BME280;13935;55.672;37.764;2023-03-20T16:11:17;100003.50;;;6.28;75.13
26192;BME280;13935;55.672;37.764;2023-03-20T16:13:21;100008.00;;;6.21;77.70
26192;BME280;13935;55.672;37.764;2023-03-20T16:16:03;100004.91;;;6.22;76.67
26192;BME280;13935;55.672;37.764;2023-03-20T16:18:41;99992.06;;;6.11;77.88
26192;BME280;13935;55.672;37.764;2023-03-20T16:20:36;99997.66;;;6.14;77.35
26192;BME280;13935;55.672;37.764;2023-03-20T16:25:58;99997.47;;;6.07;77.89
26192;BME280;13935;55.672;37.764;2023-03-20T16:32:08;99998.69;;;5.94;80.67
26192;BME280;13935;55.672;37.764;2023-03-20T16:34:21;99993.91;;;5.91;79.99
26192;BME280;13935;55.672;37.764;2023-03-20T16:36:39;99999.59;;;5.98;80.48
26192;BME280;13935;55.672;37.764;2023-03-20T16:40:00;100002.75;;;5.85;82.13
26192;BME280;13935;55.672;37.764;2023-03-20T16:43:45;99990.53;;;5.82;82.56
26192;BME280;13935;55.672;37.764;2023-03-20T16:51:57;99994.00;;;5.67;84.98
26192;BME280;13935;55.672;37.764;2023-03-20T16:54:33;99994.63;;;5.61;85.75
26192;BME280;13935;55.672;37.764;2023-03-20T16:56:43;99984.19;;;5.51;86.94
26192;BME280;13935;55.672;37.764;2023-03-20T16:58:32;99992.16;;;5.56;86.64
26192;BME280;13935;55.672;37.764;2023-03-20T17:03:15;99988.06;;;5.50;84.43
26192;BME280;13935;55.672;37.764;2023-03-20T17:06:07;99983.34;;;5.51;84.12
26192;BME280;13935;55.672;37.764;2023-03-20T17:10:58;99984.06;;;5.48;84.25
26192;BME280;13935;55.672;37.764;2023-03-20T17:13:42;99980.00;;;5.42;85.13
26192;BME280;13935;55.672;37.764;2023-03-20T17:16:02;99982.00;;;5.45;84.57
26192;BME280;13935;55.672;37.764;2023-03-20T17:19:09;99979.72;;;5.47;85.02
26192;BME280;13935;55.672;37.764;2023-03-20T17:21:17;99983.34;;;5.51;85.82
26192;BME280;13935;55.672;37.764;2023-03-20T17:23:46;99986.16;;;5.39;87.84
26192;BME280;13935;55.672;37.764;2023-03-20T17:25:19;99975.53;;;5.37;87.24
26192;BME280;13935;55.672;37.764;2023-03-20T17:27:36;99978.28;;;5.37;87.82
26192;BME280;13935;55.672;37.764;2023-03-20T17:29:11;99972.00;;;5.37;88.09
26192;BME280;13935;55.672;37.764;2023-03-20T17:30:34;99971.31;;;5.40;87.63
26192;BME280;13935;55.672;37.764;2023-03-20T17:36:26;99976.59;;;5.33;88.76
26192;BME280;13935;55.672;37.764;2023-03-20T17:38:51;99975.09;;;5.35;89.23
26192;BME280;13935;55.672;37.764;2023-03-20T17:44:22;99967.03;;;5.27;89.55
26192;BME280;13935;55.672;37.764;2023-03-20T17:46:08;99969.56;;;5.20;89.98
26192;BME280;13935;55.672;37.764;2023-03-20T17:49:09;99972.56;;;5.15;91.96
26192;BME280;13935;55.672;37.764;2023-03-20T17:58:28;99966.47;;;5.21;89.68
26192;BME280;13935;55.672;37.764;2023-03-20T18:01:21;99963.91;;;5.28;89.26
